Coral Coast — WDF5120 — position and weather

sailwx.info

Track history (hours):
 
Tides and Currents Weather Stations Pressure Air Temp Water Temp Dewpoint Dewpoint Depression Visibility Wind Speed Wind Dir Waves Ship Positions

Coral Coast

Owner: Dann MarineTowing, LC., Chesapeake City, MD. More information available from US FCC via Universal Licensing System and Coast Guard Vessel Documentation Center.

Last reported at 2017-Jun-28 07:00 UTC. Time now 2017-Jun-28 07:20 UTC.
Position N 40°40' W 074°00'.

Length 70 m; draft 5.3 m.

Type: Tug. MMSI: 367459570.

Date/timePositionNaut miles runAvg speedWind from/ knotsBaromVisibWave heightAir tempDewpointWater temp
2017-Jun-28 07:00N 40°40' W 074°00'0 0.0
2017-Jun-28 06:30N 40°40' W 074°00'0 0.0
2017-Jun-28 06:00N 40°40' W 074°00'0 0.0
2017-Jun-28 05:30N 40°40' W 074°00'0 0.0
2017-Jun-28 05:00N 40°40' W 074°00'0 0.5
2017-Jun-28 04:30N 40°40' W 074°00'0 0.9
2017-Jun-28 04:00N 40°40' W 074°01'3 5.3
2017-Jun-28 03:30N 40°42' W 074°01'4 7.1
2017-Jun-28 03:00N 40°46' W 074°00'4 7.5
2017-Jun-28 02:30N 40°49' W 073°58'4 7.5
2017-Jun-28 02:00N 40°53' W 073°56'4 7.4
2017-Jun-28 01:24N 40°57' W 073°54'3 0.1
2017-Jun-26 00:44N 40°59' W 073°54'311.8
2017-Jun-26 00:30N 40°57' W 073°54'511.1
2017-Jun-26 00:00N 40°52' W 073°57'510.7
2017-Jun-25 23:30N 40°47' W 073°60'5 9.7
2017-Jun-25 23:00N 40°42' W 074°01'3 6.7
2017-Jun-25 22:30N 40°44' W 073°58'4 8.1
2017-Jun-25 21:58N 40°48' W 073°54'3 6.7
2017-Jun-25 21:30N 40°46' W 073°51'0 0.9
2017-Jun-25 21:00N 40°46' W 073°51'0 0.0
2017-Jun-25 20:30N 40°46' W 073°51'0 0.0
2017-Jun-25 20:00N 40°46' W 073°51'0 0.0
2017-Jun-25 19:30N 40°46' W 073°51'0 0.0
2017-Jun-25 19:00N 40°46' W 073°51'0 0.0
2017-Jun-25 18:30N 40°46' W 073°51'0 0.0
2017-Jun-25 18:00N 40°46' W 073°51'0 0.0
2017-Jun-25 17:30N 40°46' W 073°51'0 0.0
2017-Jun-25 16:59N 40°46' W 073°51'0 0.0
2017-Jun-25 16:30N 40°46' W 073°51'0 0.0
2017-Jun-25 16:00N 40°46' W 073°51'0 0.0
2017-Jun-25 15:30N 40°46' W 073°51'0 0.0
2017-Jun-25 15:00N 40°46' W 073°51'0 0.0
2017-Jun-25 14:00N 40°46' W 073°51'0 0.0
2017-Jun-25 13:30N 40°46' W 073°51'0 0.0
2017-Jun-25 13:00N 40°46' W 073°51'0 0.0
2017-Jun-25 12:30N 40°46' W 073°51'0 0.0
2017-Jun-25 12:00N 40°46' W 073°51'0 0.0
2017-Jun-25 11:30N 40°46' W 073°51'0 0.0
2017-Jun-25 11:00N 40°46' W 073°51'0 0.0
2017-Jun-25 10:30N 40°46' W 073°51'0 0.0
2017-Jun-25 10:00N 40°46' W 073°51'0 0.0
2017-Jun-25 09:30N 40°46' W 073°51'0 0.0
2017-Jun-25 09:00N 40°46' W 073°51'0 0.0
2017-Jun-25 08:30N 40°46' W 073°51'0 0.0
2017-Jun-25 08:00N 40°46' W 073°51'0 0.0
2017-Jun-25 07:30N 40°46' W 073°51'0 0.0
2017-Jun-25 07:00N 40°46' W 073°51'0 0.0
2017-Jun-25 06:30N 40°46' W 073°51'0 0.0
2017-Jun-25 06:00N 40°46' W 073°51'0 0.0
2017-Jun-25 05:30N 40°46' W 073°51'0 0.0
2017-Jun-25 05:00N 40°46' W 073°51'0 0.0
2017-Jun-25 04:30N 40°46' W 073°51'0 0.0
2017-Jun-25 04:00N 40°46' W 073°51'0 0.0
2017-Jun-25 03:30N 40°46' W 073°51'0 0.5
2017-Jun-25 02:59N 40°46' W 073°51'3 5.1
2017-Jun-25 02:30N 40°48' W 073°53'3 6.9
2017-Jun-25 02:00N 40°46' W 073°57'3 6.6
2017-Jun-25 01:30N 40°43' W 073°58'2 4.9
2017-Jun-25 01:00N 40°43' W 074°01'3 6.5
2017-Jun-25 00:30N 40°46' W 074°00'3 6.8
2017-Jun-25 00:00N 40°49' W 073°58'4 7.3
2017-Jun-24 23:30N 40°52' W 073°56'4 6.9
2017-Jun-24 22:59N 40°56' W 073°55'0 0.7
2017-Jun-24 22:30N 40°56' W 073°55'1 2.8
2017-Jun-24 21:58N 40°58' W 073°54'0 0.0
2017-Jun-22 23:20N 40°58' W 073°54'412.7
2017-Jun-22 23:00N 40°54' W 073°55'612.9
2017-Jun-22 22:30N 40°48' W 073°59'611.8
2017-Jun-22 22:01N 40°42' W 074°01'3 6.0
2017-Jun-22 21:30N 40°44' W 073°58'3 6.4
2017-Jun-22 21:00N 40°47' W 073°56'3 5.3
2017-Jun-22 20:30N 40°48' W 073°53'3 5.6
2017-Jun-22 20:00N 40°46' W 073°51'0 0.5
2017-Jun-22 19:30N 40°46' W 073°51'0 0.0
2017-Jun-22 19:00N 40°46' W 073°51'0 0.0
2017-Jun-22 18:30N 40°46' W 073°51'0 0.0
2017-Jun-22 18:00N 40°46' W 073°51'0 0.0
2017-Jun-22 17:30N 40°46' W 073°51'0 0.0
2017-Jun-22 17:00N 40°46' W 073°51'0 0.0
2017-Jun-22 16:30N 40°46' W 073°51'0 0.0
2017-Jun-22 16:00N 40°46' W 073°51'0 0.0
2017-Jun-22 15:30N 40°46' W 073°51'0 0.0
2017-Jun-22 15:00N 40°46' W 073°51'0 0.0
2017-Jun-22 14:30N 40°46' W 073°51'0 0.0
2017-Jun-22 13:30N 40°46' W 073°51'0 0.0
2017-Jun-22 13:00N 40°46' W 073°51'0 0.0
2017-Jun-22 12:30N 40°46' W 073°51'0 0.0
2017-Jun-22 12:00N 40°46' W 073°51'0 0.0
2017-Jun-22 11:30N 40°46' W 073°51'0 0.0
2017-Jun-22 11:00N 40°46' W 073°51'0 0.0
2017-Jun-22 10:30N 40°46' W 073°51'0 0.0
2017-Jun-22 10:00N 40°46' W 073°51'0 0.0
2017-Jun-22 09:30N 40°46' W 073°51'0 0.0
2017-Jun-22 09:00N 40°46' W 073°51'0 0.0
2017-Jun-22 08:30N 40°46' W 073°51'0 0.0
2017-Jun-22 08:00N 40°46' W 073°51'0 0.0
2017-Jun-22 07:30N 40°46' W 073°51'0 0.0
2017-Jun-22 07:00N 40°46' W 073°51'0 0.0
2017-Jun-22 06:30N 40°46' W 073°51'0 0.0
2017-Jun-22 06:00N 40°46' W 073°51'0 0.0
2017-Jun-22 05:30N 40°46' W 073°51'0 0.0
2017-Jun-22 05:00N 40°46' W 073°51'0 0.0
2017-Jun-22 04:30N 40°46' W 073°51'0 0.0
2017-Jun-22 04:00N 40°46' W 073°51'0 0.0
2017-Jun-22 03:30N 40°46' W 073°51'0 0.0
2017-Jun-22 03:00N 40°46' W 073°51'0 0.0
2017-Jun-22 02:30N 40°46' W 073°51'0 0.0
2017-Jun-22 01:59N 40°46' W 073°51'0 0.0
2017-Jun-22 01:30N 40°46' W 073°51'0 0.1
2017-Jun-22 00:59N 40°46' W 073°51'2 4.2
2017-Jun-22 00:28N 40°48' W 073°52'3 7.4
2017-Jun-22 00:00N 40°47' W 073°56'4 7.7
2017-Jun-21 23:30N 40°43' W 073°58'3 6.9
2017-Jun-21 23:01N 40°41' W 074°01'3 5.8
2017-Jun-21 22:30N 40°38' W 074°03'2 4.7
2017-Jun-21 22:00N 40°36' W 074°02'0 0.6
2017-Jun-21 21:30N 40°36' W 074°01'0 0.1
2017-Jun-21 21:00N 40°36' W 074°01'0 0.3
2017-Jun-21 20:30N 40°36' W 074°01'0 0.2
2017-Jun-21 20:00N 40°36' W 074°01'0 0.2
2017-Jun-21 19:30N 40°36' W 074°02'0 0.3
2017-Jun-21 19:00N 40°36' W 074°01'0 0.6
2017-Jun-21 18:30N 40°36' W 074°01'1 2.0
2017-Jun-21 18:00N 40°35' W 074°02'3 5.2
2017-Jun-21 17:29N 40°32' W 074°01'3 6.4
2017-Jun-21 17:00N 40°30' W 073°58'3 5.4
2017-Jun-21 16:29N 40°29' W 073°54'2 4.4
2017-Jun-21 16:00N 40°27' W 073°54'4 6.1
2017-Jun-21 15:16N 40°23' W 073°54'16 6.5
2017-Jun-21 12:46N 40°06' W 073°55'2 6.7
2017-Jun-21 12:30N 40°05' W 073°55'3 6.5
2017-Jun-21 12:00N 40°01' W 073°56'3 6.5
2017-Jun-21 11:30N 39°58' W 073°57'3 6.6
2017-Jun-21 11:00N 39°55' W 073°57'3 6.8
2017-Jun-21 10:30N 39°52' W 073°58'3 6.2
2017-Jun-21 10:01N 39°49' W 073°58'3 6.4
2017-Jun-21 09:30N 39°45' W 073°59'3 6.4
2017-Jun-21 08:59N 39°42' W 074°01'3 6.5
2017-Jun-21 08:29N 39°39' W 074°02'3 6.4
2017-Jun-21 08:00N 39°36' W 074°04'4 6.3
2017-Jun-21 07:25N 39°33' W 074°06'3 6.4
2017-Jun-21 06:54N 39°30' W 074°08'13 6.7
2017-Jun-21 04:54N 39°20' W 074°18'4 6.9
2017-Jun-21 04:19N 39°17' W 074°22'2 6.8
2017-Jun-21 03:59N 39°15' W 074°23'3 7.1
2017-Jun-21 03:30N 39°12' W 074°26'4 7.1
2017-Jun-21 03:00N 39°09' W 074°29'4 8.1
2017-Jun-21 02:30N 39°06' W 074°32'4 8.4
2017-Jun-21 01:59N 39°03' W 074°36'4 8.6
2017-Jun-21 01:30N 39°00' W 074°40'4 8.7
2017-Jun-21 01:00N 38°57' W 074°44'4 8.7
2017-Jun-21 00:30N 38°53' W 074°47'5 8.4
2017-Jun-20 23:52N 38°50' W 074°52'11 6.0
2017-Jun-20 22:04N 38°54' W 075°05'3 6.5
2017-Jun-20 21:40N 38°56' W 075°06'1 6.5
2017-Jun-20 21:26N 38°58' W 075°07'3 5.8
2017-Jun-20 21:00N 38°60' W 075°08'2 5.0
2017-Jun-20 20:31N 39°02' W 075°10'3 5.6
2017-Jun-20 20:01N 39°05' W 075°11'3 5.6
2017-Jun-20 19:31N 39°07' W 075°13'3 6.3
2017-Jun-20 19:01N 39°10' W 075°15'3 6.8
2017-Jun-20 18:31N 39°13' W 075°17'4 8.1
2017-Jun-20 18:00N 39°16' W 075°20'4 8.9
2017-Jun-20 17:30N 39°19' W 075°24'4 7.9
2017-Jun-20 17:01N 39°22' W 075°28'0 1.0
2017-Jun-20 16:31N 39°22' W 075°28'4 8.6
2017-Jun-20 16:01N 39°26' W 075°32'5 9.4
2017-Jun-20 15:31N 39°30' W 075°33'5 9.7
2017-Jun-20 15:00N 39°35' W 075°34'8 8.3
2017-Jun-20 14:00N 39°43' W 075°30'4 7.9
2017-Jun-20 13:31N 39°46' W 075°28'4 7.3
2017-Jun-20 13:00N 39°49' W 075°24'3 6.7
2017-Jun-20 12:30N 39°51' W 075°21'3 6.7
2017-Jun-20 12:00N 39°51' W 075°16'3 6.9
2017-Jun-20 11:30N 39°52' W 075°12'3 6.7
2017-Jun-20 11:00N 39°54' W 075°08'1 2.9
2017-Jun-20 10:30N 39°55' W 075°08'0 0.0
2017-Jun-20 10:00N 39°55' W 075°08'0 0.0
2017-Jun-20 09:30N 39°55' W 075°08'0 0.0
2017-Jun-20 09:00N 39°55' W 075°08'0 0.0
2017-Jun-20 08:30N 39°55' W 075°08'0 0.0
2017-Jun-20 08:00N 39°55' W 075°08'0 0.0
2017-Jun-20 07:30N 39°55' W 075°08'0 0.0
2017-Jun-20 07:00N 39°55' W 075°08'0 0.0
2017-Jun-20 06:30N 39°55' W 075°08'0 0.0
2017-Jun-20 06:00N 39°55' W 075°08'0 0.0
2017-Jun-20 05:30N 39°55' W 075°08'0 0.0
2017-Jun-20 05:01N 39°55' W 075°08'0 0.0
2017-Jun-20 04:30N 39°55' W 075°08'0 0.0
2017-Jun-20 04:00N 39°55' W 075°08'0 0.0
2017-Jun-20 03:30N 39°55' W 075°08'0 0.0
2017-Jun-20 03:00N 39°55' W 075°08'0 0.0
2017-Jun-20 02:30N 39°55' W 075°08'0 0.0
2017-Jun-20 02:00N 39°55' W 075°08'0 0.0
2017-Jun-20 01:30N 39°55' W 075°08'0 0.0
2017-Jun-20 01:00N 39°55' W 075°08'0 0.0
2017-Jun-20 00:30N 39°55' W 075°08'0 0.0
2017-Jun-20 00:00N 39°55' W 075°08'0 0.0
2017-Jun-19 23:30N 39°55' W 075°08'0 0.0
2017-Jun-19 23:00N 39°55' W 075°08'0 0.0
2017-Jun-19 22:30N 39°55' W 075°08'0 0.0
2017-Jun-19 22:00N 39°55' W 075°08'0 0.0
2017-Jun-19 21:30N 39°55' W 075°08'0 0.0
2017-Jun-19 21:00N 39°55' W 075°08'0 0.0
2017-Jun-19 20:30N 39°55' W 075°08'0 0.0
2017-Jun-19 20:00N 39°55' W 075°08'0 0.0
2017-Jun-19 19:31N 39°55' W 075°08'0 0.0
2017-Jun-19 19:00N 39°55' W 075°08'0 0.1
2017-Jun-19 18:31N 39°55' W 075°08'0 0.0
2017-Jun-19 18:00N 39°55' W 075°08'0 0.0
2017-Jun-19 17:30N 39°55' W 075°08'0 0.0
2017-Jun-19 17:00N 39°55' W 075°08'0 0.0
2017-Jun-19 16:30N 39°55' W 075°08'0 0.0
2017-Jun-19 16:01N 39°55' W 075°08'0 0.0
2017-Jun-19 15:30N 39°55' W 075°08'0 0.0
2017-Jun-19 15:00N 39°55' W 075°08'0 0.0
2017-Jun-19 14:31N 39°55' W 075°08'0 0.0
2017-Jun-19 13:30N 39°55' W 075°08'0 0.0
2017-Jun-19 13:01N 39°55' W 075°08'0 0.0
2017-Jun-19 12:31N 39°55' W 075°08'0 0.0
2017-Jun-19 12:00N 39°55' W 075°08'0 0.0
2017-Jun-19 11:30N 39°55' W 075°08'0 0.0
2017-Jun-19 11:00N 39°55' W 075°08'0 0.0
2017-Jun-19 10:31N 39°55' W 075°08'0 0.0
2017-Jun-19 10:01N 39°55' W 075°08'0 0.0
2017-Jun-19 09:30N 39°55' W 075°08'0 0.0
2017-Jun-19 09:00N 39°55' W 075°08'0 0.0
2017-Jun-19 08:30N 39°55' W 075°08'0 0.0
2017-Jun-19 08:00N 39°55' W 075°08'0 0.0
2017-Jun-19 07:30N 39°55' W 075°08'0 0.0
2017-Jun-19 07:00N 39°55' W 075°08'0 0.0
2017-Jun-19 06:31N 39°55' W 075°08'0 0.0
2017-Jun-19 06:00N 39°55' W 075°08'0 0.0
2017-Jun-19 05:31N 39°55' W 075°08'0 0.0
2017-Jun-19 05:01N 39°55' W 075°08'0 0.0
2017-Jun-19 04:30N 39°55' W 075°08'0 0.0
2017-Jun-19 04:00N 39°55' W 075°08'0 0.0
2017-Jun-19 03:30N 39°55' W 075°08'0 0.0
2017-Jun-19 03:01N 39°55' W 075°08'0 0.0
2017-Jun-19 02:31N 39°55' W 075°08'0 0.0
2017-Jun-19 02:00N 39°55' W 075°08'0 0.0
2017-Jun-19 01:30N 39°55' W 075°08'0 0.0
2017-Jun-19 01:00N 39°55' W 075°08'0 0.0
2017-Jun-19 00:31N 39°55' W 075°08'0 0.0
2017-Jun-19 00:01N 39°55' W 075°08'0 0.0
2017-Jun-18 23:30N 39°55' W 075°08'0 0.0
2017-Jun-18 23:00N 39°55' W 075°08'0 0.0
2017-Jun-18 22:31N 39°55' W 075°08'0 0.0
2017-Jun-18 22:01N 39°55' W 075°08'0 0.0
2017-Jun-18 21:30N 39°55' W 075°08'0 0.0
2017-Jun-18 21:01N 39°55' W 075°08'0 0.0
2017-Jun-18 20:31N 39°55' W 075°08'0 0.0
2017-Jun-18 20:00N 39°55' W 075°08'0 0.0
2017-Jun-18 19:30N 39°55' W 075°08'0 0.0
2017-Jun-18 19:00N 39°55' W 075°08'0 0.0
2017-Jun-18 18:30N 39°55' W 075°08'0 0.0
2017-Jun-18 18:00N 39°55' W 075°08'0 0.0
2017-Jun-18 17:30N 39°55' W 075°08'0 0.0
2017-Jun-18 17:00N 39°55' W 075°08'0 0.0
2017-Jun-18 16:30N 39°55' W 075°08'1 2.0
2017-Jun-18 16:01N 39°54' W 075°08'1 2.7
2017-Jun-18 15:31N 39°53' W 075°09'4 8.0
2017-Jun-18 15:00N 39°52' W 075°14'8 8.0
2017-Jun-18 14:00N 39°49' W 075°24'4 7.8
2017-Jun-18 13:30N 39°47' W 075°28'4 8.3
2017-Jun-18 13:00N 39°43' W 075°30'4 8.0
2017-Jun-18 12:30N 39°39' W 075°33'4 7.3
2017-Jun-18 12:00N 39°36' W 075°34'4 8.2
2017-Jun-18 11:30N 39°32' W 075°33'4 8.6
2017-Jun-18 11:00N 39°28' W 075°34'4 8.9
2017-Jun-18 10:30N 39°24' W 075°30'5 9.4
2017-Jun-18 10:00N 39°21' W 075°26'5 9.5
2017-Jun-18 09:30N 39°17' W 075°22'5 9.5
2017-Jun-18 09:00N 39°14' W 075°18'5 9.3
2017-Jun-18 08:30N 39°09' W 075°15'4 8.8
2017-Jun-18 08:00N 39°06' W 075°12'5 9.2
2017-Jun-18 07:30N 39°02' W 075°09'  
Track history (hours):
 
Tides and Currents Weather Stations Pressure Air Temp Water Temp Dewpoint Dewpoint Depression Visibility Wind Speed Wind Dir Waves Ship Positions

Coral Coast

Owner: Dann MarineTowing, LC., Chesapeake City, MD. More information available from US FCC via Universal Licensing System and Coast Guard Vessel Documentation Center.

Last reported at 2017-Jun-28 07:00 UTC. Time now 2017-Jun-28 07:20 UTC.
Position N 40°40' W 074°00'.

Length 70 m; draft 5.3 m.

Type: Tug. MMSI: 367459570.

Date/timePositionNaut miles runAvg speedWind from/ knotsBaromVisibWave heightAir tempDewpointWater temp
2017-Jun-28 07:00N 40°40' W 074°00'0 0.0
2017-Jun-28 06:30N 40°40' W 074°00'0 0.0
2017-Jun-28 06:00N 40°40' W 074°00'0 0.0
2017-Jun-28 05:30N 40°40' W 074°00'0 0.0
2017-Jun-28 05:00N 40°40' W 074°00'0 0.5
2017-Jun-28 04:30N 40°40' W 074°00'0 0.9
2017-Jun-28 04:00N 40°40' W 074°01'3 5.3
2017-Jun-28 03:30N 40°42' W 074°01'4 7.1
2017-Jun-28 03:00N 40°46' W 074°00'4 7.5
2017-Jun-28 02:30N 40°49' W 073°58'4 7.5
2017-Jun-28 02:00N 40°53' W 073°56'4 7.4
2017-Jun-28 01:24N 40°57' W 073°54'3 0.1
2017-Jun-26 00:44N 40°59' W 073°54'311.8
2017-Jun-26 00:30N 40°57' W 073°54'511.1
2017-Jun-26 00:00N 40°52' W 073°57'510.7
2017-Jun-25 23:30N 40°47' W 073°60'5 9.7
2017-Jun-25 23:00N 40°42' W 074°01'3 6.7
2017-Jun-25 22:30N 40°44' W 073°58'4 8.1
2017-Jun-25 21:58N 40°48' W 073°54'3 6.7
2017-Jun-25 21:30N 40°46' W 073°51'0 0.9
2017-Jun-25 21:00N 40°46' W 073°51'0 0.0
2017-Jun-25 20:30N 40°46' W 073°51'0 0.0
2017-Jun-25 20:00N 40°46' W 073°51'0 0.0
2017-Jun-25 19:30N 40°46' W 073°51'0 0.0
2017-Jun-25 19:00N 40°46' W 073°51'0 0.0
2017-Jun-25 18:30N 40°46' W 073°51'0 0.0
2017-Jun-25 18:00N 40°46' W 073°51'0 0.0
2017-Jun-25 17:30N 40°46' W 073°51'0 0.0
2017-Jun-25 16:59N 40°46' W 073°51'0 0.0
2017-Jun-25 16:30N 40°46' W 073°51'0 0.0
2017-Jun-25 16:00N 40°46' W 073°51'0 0.0
2017-Jun-25 15:30N 40°46' W 073°51'0 0.0
2017-Jun-25 15:00N 40°46' W 073°51'0 0.0
2017-Jun-25 14:00N 40°46' W 073°51'0 0.0
2017-Jun-25 13:30N 40°46' W 073°51'0 0.0
2017-Jun-25 13:00N 40°46' W 073°51'0 0.0
2017-Jun-25 12:30N 40°46' W 073°51'0 0.0
2017-Jun-25 12:00N 40°46' W 073°51'0 0.0
2017-Jun-25 11:30N 40°46' W 073°51'0 0.0
2017-Jun-25 11:00N 40°46' W 073°51'0 0.0
2017-Jun-25 10:30N 40°46' W 073°51'0 0.0
2017-Jun-25 10:00N 40°46' W 073°51'0 0.0
2017-Jun-25 09:30N 40°46' W 073°51'0 0.0
2017-Jun-25 09:00N 40°46' W 073°51'0 0.0
2017-Jun-25 08:30N 40°46' W 073°51'0 0.0
2017-Jun-25 08:00N 40°46' W 073°51'0 0.0
2017-Jun-25 07:30N 40°46' W 073°51'0 0.0
2017-Jun-25 07:00N 40°46' W 073°51'0 0.0
2017-Jun-25 06:30N 40°46' W 073°51'0 0.0
2017-Jun-25 06:00N 40°46' W 073°51'0 0.0
2017-Jun-25 05:30N 40°46' W 073°51'0 0.0
2017-Jun-25 05:00N 40°46' W 073°51'0 0.0
2017-Jun-25 04:30N 40°46' W 073°51'0 0.0
2017-Jun-25 04:00N 40°46' W 073°51'0 0.0
2017-Jun-25 03:30N 40°46' W 073°51'0 0.5
2017-Jun-25 02:59N 40°46' W 073°51'3 5.1
2017-Jun-25 02:30N 40°48' W 073°53'3 6.9
2017-Jun-25 02:00N 40°46' W 073°57'3 6.6
2017-Jun-25 01:30N 40°43' W 073°58'2 4.9
2017-Jun-25 01:00N 40°43' W 074°01'3 6.5
2017-Jun-25 00:30N 40°46' W 074°00'3 6.8
2017-Jun-25 00:00N 40°49' W 073°58'4 7.3
2017-Jun-24 23:30N 40°52' W 073°56'4 6.9
2017-Jun-24 22:59N 40°56' W 073°55'0 0.7
2017-Jun-24 22:30N 40°56' W 073°55'1 2.8
2017-Jun-24 21:58N 40°58' W 073°54'0 0.0
2017-Jun-22 23:20N 40°58' W 073°54'412.7
2017-Jun-22 23:00N 40°54' W 073°55'612.9
2017-Jun-22 22:30N 40°48' W 073°59'611.8
2017-Jun-22 22:01N 40°42' W 074°01'3 6.0
2017-Jun-22 21:30N 40°44' W 073°58'3 6.4
2017-Jun-22 21:00N 40°47' W 073°56'3 5.3
2017-Jun-22 20:30N 40°48' W 073°53'3 5.6
2017-Jun-22 20:00N 40°46' W 073°51'0 0.5
2017-Jun-22 19:30N 40°46' W 073°51'0 0.0
2017-Jun-22 19:00N 40°46' W 073°51'0 0.0
2017-Jun-22 18:30N 40°46' W 073°51'0 0.0
2017-Jun-22 18:00N 40°46' W 073°51'0 0.0
2017-Jun-22 17:30N 40°46' W 073°51'0 0.0
2017-Jun-22 17:00N 40°46' W 073°51'0 0.0
2017-Jun-22 16:30N 40°46' W 073°51'0 0.0
2017-Jun-22 16:00N 40°46' W 073°51'0 0.0
2017-Jun-22 15:30N 40°46' W 073°51'0 0.0
2017-Jun-22 15:00N 40°46' W 073°51'0 0.0
2017-Jun-22 14:30N 40°46' W 073°51'0 0.0
2017-Jun-22 13:30N 40°46' W 073°51'0 0.0
2017-Jun-22 13:00N 40°46' W 073°51'0 0.0
2017-Jun-22 12:30N 40°46' W 073°51'0 0.0
2017-Jun-22 12:00N 40°46' W 073°51'0 0.0
2017-Jun-22 11:30N 40°46' W 073°51'0 0.0
2017-Jun-22 11:00N 40°46' W 073°51'0 0.0
2017-Jun-22 10:30N 40°46' W 073°51'0 0.0
2017-Jun-22 10:00N 40°46' W 073°51'0 0.0
2017-Jun-22 09:30N 40°46' W 073°51'0 0.0
2017-Jun-22 09:00N 40°46' W 073°51'0 0.0
2017-Jun-22 08:30N 40°46' W 073°51'0 0.0
2017-Jun-22 08:00N 40°46' W 073°51'0 0.0
2017-Jun-22 07:30N 40°46' W 073°51'0 0.0
2017-Jun-22 07:00N 40°46' W 073°51'0 0.0
2017-Jun-22 06:30N 40°46' W 073°51'0 0.0
2017-Jun-22 06:00N 40°46' W 073°51'0 0.0
2017-Jun-22 05:30N 40°46' W 073°51'0 0.0
2017-Jun-22 05:00N 40°46' W 073°51'0 0.0
2017-Jun-22 04:30N 40°46' W 073°51'0 0.0
2017-Jun-22 04:00N 40°46' W 073°51'0 0.0
2017-Jun-22 03:30N 40°46' W 073°51'0 0.0
2017-Jun-22 03:00N 40°46' W 073°51'0 0.0
2017-Jun-22 02:30N 40°46' W 073°51'0 0.0
2017-Jun-22 01:59N 40°46' W 073°51'0 0.0
2017-Jun-22 01:30N 40°46' W 073°51'0 0.1
2017-Jun-22 00:59N 40°46' W 073°51'2 4.2
2017-Jun-22 00:28N 40°48' W 073°52'3 7.4
2017-Jun-22 00:00N 40°47' W 073°56'4 7.7
2017-Jun-21 23:30N 40°43' W 073°58'3 6.9
2017-Jun-21 23:01N 40°41' W 074°01'3 5.8
2017-Jun-21 22:30N 40°38' W 074°03'2 4.7
2017-Jun-21 22:00N 40°36' W 074°02'0 0.6
2017-Jun-21 21:30N 40°36' W 074°01'0 0.1
2017-Jun-21 21:00N 40°36' W 074°01'0 0.3
2017-Jun-21 20:30N 40°36' W 074°01'0 0.2
2017-Jun-21 20:00N 40°36' W 074°01'0 0.2
2017-Jun-21 19:30N 40°36' W 074°02'0 0.3
2017-Jun-21 19:00N 40°36' W 074°01'0 0.6
2017-Jun-21 18:30N 40°36' W 074°01'1 2.0
2017-Jun-21 18:00N 40°35' W 074°02'3 5.2
2017-Jun-21 17:29N 40°32' W 074°01'3 6.4
2017-Jun-21 17:00N 40°30' W 073°58'3 5.4
2017-Jun-21 16:29N 40°29' W 073°54'2 4.4
2017-Jun-21 16:00N 40°27' W 073°54'4 6.1
2017-Jun-21 15:16N 40°23' W 073°54'16 6.5
2017-Jun-21 12:46N 40°06' W 073°55'2 6.7
2017-Jun-21 12:30N 40°05' W 073°55'3 6.5
2017-Jun-21 12:00N 40°01' W 073°56'3 6.5
2017-Jun-21 11:30N 39°58' W 073°57'3 6.6
2017-Jun-21 11:00N 39°55' W 073°57'3 6.8
2017-Jun-21 10:30N 39°52' W 073°58'3 6.2
2017-Jun-21 10:01N 39°49' W 073°58'3 6.4
2017-Jun-21 09:30N 39°45' W 073°59'3 6.4
2017-Jun-21 08:59N 39°42' W 074°01'3 6.5
2017-Jun-21 08:29N 39°39' W 074°02'3 6.4
2017-Jun-21 08:00N 39°36' W 074°04'4 6.3
2017-Jun-21 07:25N 39°33' W 074°06'3 6.4
2017-Jun-21 06:54N 39°30' W 074°08'13 6.7
2017-Jun-21 04:54N 39°20' W 074°18'4 6.9
2017-Jun-21 04:19N 39°17' W 074°22'2 6.8
2017-Jun-21 03:59N 39°15' W 074°23'3 7.1
2017-Jun-21 03:30N 39°12' W 074°26'4 7.1
2017-Jun-21 03:00N 39°09' W 074°29'4 8.1
2017-Jun-21 02:30N 39°06' W 074°32'4 8.4
2017-Jun-21 01:59N 39°03' W 074°36'4 8.6
2017-Jun-21 01:30N 39°00' W 074°40'4 8.7
2017-Jun-21 01:00N 38°57' W 074°44'4 8.7
2017-Jun-21 00:30N 38°53' W 074°47'5 8.4
2017-Jun-20 23:52N 38°50' W 074°52'11 6.0
2017-Jun-20 22:04N 38°54' W 075°05'3 6.5
2017-Jun-20 21:40N 38°56' W 075°06'1 6.5
2017-Jun-20 21:26N 38°58' W 075°07'3 5.8
2017-Jun-20 21:00N 38°60' W 075°08'2 5.0
2017-Jun-20 20:31N 39°02' W 075°10'3 5.6
2017-Jun-20 20:01N 39°05' W 075°11'3 5.6
2017-Jun-20 19:31N 39°07' W 075°13'3 6.3
2017-Jun-20 19:01N 39°10' W 075°15'3 6.8
2017-Jun-20 18:31N 39°13' W 075°17'4 8.1
2017-Jun-20 18:00N 39°16' W 075°20'4 8.9
2017-Jun-20 17:30N 39°19' W 075°24'4 7.9
2017-Jun-20 17:01N 39°22' W 075°28'0 1.0
2017-Jun-20 16:31N 39°22' W 075°28'4 8.6
2017-Jun-20 16:01N 39°26' W 075°32'5 9.4
2017-Jun-20 15:31N 39°30' W 075°33'5 9.7
2017-Jun-20 15:00N 39°35' W 075°34'8 8.3
2017-Jun-20 14:00N 39°43' W 075°30'4 7.9
2017-Jun-20 13:31N 39°46' W 075°28'4 7.3
2017-Jun-20 13:00N 39°49' W 075°24'3 6.7
2017-Jun-20 12:30N 39°51' W 075°21'3 6.7
2017-Jun-20 12:00N 39°51' W 075°16'3 6.9
2017-Jun-20 11:30N 39°52' W 075°12'3 6.7
2017-Jun-20 11:00N 39°54' W 075°08'1 2.9
2017-Jun-20 10:30N 39°55' W 075°08'0 0.0
2017-Jun-20 10:00N 39°55' W 075°08'0 0.0
2017-Jun-20 09:30N 39°55' W 075°08'0 0.0
2017-Jun-20 09:00N 39°55' W 075°08'0 0.0
2017-Jun-20 08:30N 39°55' W 075°08'0 0.0
2017-Jun-20 08:00N 39°55' W 075°08'0 0.0
2017-Jun-20 07:30N 39°55' W 075°08'0 0.0
2017-Jun-20 07:00N 39°55' W 075°08'0 0.0
2017-Jun-20 06:30N 39°55' W 075°08'0 0.0
2017-Jun-20 06:00N 39°55' W 075°08'0 0.0
2017-Jun-20 05:30N 39°55' W 075°08'0 0.0
2017-Jun-20 05:01N 39°55' W 075°08'0 0.0
2017-Jun-20 04:30N 39°55' W 075°08'0 0.0
2017-Jun-20 04:00N 39°55' W 075°08'0 0.0
2017-Jun-20 03:30N 39°55' W 075°08'0 0.0
2017-Jun-20 03:00N 39°55' W 075°08'0 0.0
2017-Jun-20 02:30N 39°55' W 075°08'0 0.0
2017-Jun-20 02:00N 39°55' W 075°08'0 0.0
2017-Jun-20 01:30N 39°55' W 075°08'0 0.0
2017-Jun-20 01:00N 39°55' W 075°08'0 0.0
2017-Jun-20 00:30N 39°55' W 075°08'0 0.0
2017-Jun-20 00:00N 39°55' W 075°08'0 0.0
2017-Jun-19 23:30N 39°55' W 075°08'0 0.0
2017-Jun-19 23:00N 39°55' W 075°08'0 0.0
2017-Jun-19 22:30N 39°55' W 075°08'0 0.0
2017-Jun-19 22:00N 39°55' W 075°08'0 0.0
2017-Jun-19 21:30N 39°55' W 075°08'0 0.0
2017-Jun-19 21:00N 39°55' W 075°08'0 0.0
2017-Jun-19 20:30N 39°55' W 075°08'0 0.0
2017-Jun-19 20:00N 39°55' W 075°08'0 0.0
2017-Jun-19 19:31N 39°55' W 075°08'0 0.0
2017-Jun-19 19:00N 39°55' W 075°08'0 0.1
2017-Jun-19 18:31N 39°55' W 075°08'0 0.0
2017-Jun-19 18:00N 39°55' W 075°08'0 0.0
2017-Jun-19 17:30N 39°55' W 075°08'0 0.0
2017-Jun-19 17:00N 39°55' W 075°08'0 0.0
2017-Jun-19 16:30N 39°55' W 075°08'0 0.0
2017-Jun-19 16:01N 39°55' W 075°08'0 0.0
2017-Jun-19 15:30N 39°55' W 075°08'0 0.0
2017-Jun-19 15:00N 39°55' W 075°08'0 0.0
2017-Jun-19 14:31N 39°55' W 075°08'0 0.0
2017-Jun-19 13:30N 39°55' W 075°08'0 0.0
2017-Jun-19 13:01N 39°55' W 075°08'0 0.0
2017-Jun-19 12:31N 39°55' W 075°08'0 0.0
2017-Jun-19 12:00N 39°55' W 075°08'0 0.0
2017-Jun-19 11:30N 39°55' W 075°08'0 0.0
2017-Jun-19 11:00N 39°55' W 075°08'0 0.0
2017-Jun-19 10:31N 39°55' W 075°08'0 0.0
2017-Jun-19 10:01N 39°55' W 075°08'0 0.0
2017-Jun-19 09:30N 39°55' W 075°08'0 0.0
2017-Jun-19 09:00N 39°55' W 075°08'0 0.0
2017-Jun-19 08:30N 39°55' W 075°08'0 0.0
2017-Jun-19 08:00N 39°55' W 075°08'0 0.0
2017-Jun-19 07:30N 39°55' W 075°08'0 0.0
2017-Jun-19 07:00N 39°55' W 075°08'0 0.0
2017-Jun-19 06:31N 39°55' W 075°08'0 0.0
2017-Jun-19 06:00N 39°55' W 075°08'0 0.0
2017-Jun-19 05:31N 39°55' W 075°08'0 0.0
2017-Jun-19 05:01N 39°55' W 075°08'0 0.0
2017-Jun-19 04:30N 39°55' W 075°08'0 0.0
2017-Jun-19 04:00N 39°55' W 075°08'0 0.0
2017-Jun-19 03:30N 39°55' W 075°08'0 0.0
2017-Jun-19 03:01N 39°55' W 075°08'0 0.0
2017-Jun-19 02:31N 39°55' W 075°08'0 0.0
2017-Jun-19 02:00N 39°55' W 075°08'0 0.0
2017-Jun-19 01:30N 39°55' W 075°08'0 0.0
2017-Jun-19 01:00N 39°55' W 075°08'0 0.0
2017-Jun-19 00:31N 39°55' W 075°08'0 0.0
2017-Jun-19 00:01N 39°55' W 075°08'0 0.0
2017-Jun-18 23:30N 39°55' W 075°08'0 0.0
2017-Jun-18 23:00N 39°55' W 075°08'0 0.0
2017-Jun-18 22:31N 39°55' W 075°08'0 0.0
2017-Jun-18 22:01N 39°55' W 075°08'0 0.0
2017-Jun-18 21:30N 39°55' W 075°08'0 0.0
2017-Jun-18 21:01N 39°55' W 075°08'0 0.0
2017-Jun-18 20:31N 39°55' W 075°08'0 0.0
2017-Jun-18 20:00N 39°55' W 075°08'0 0.0
2017-Jun-18 19:30N 39°55' W 075°08'0 0.0
2017-Jun-18 19:00N 39°55' W 075°08'0 0.0
2017-Jun-18 18:30N 39°55' W 075°08'0 0.0
2017-Jun-18 18:00N 39°55' W 075°08'0 0.0
2017-Jun-18 17:30N 39°55' W 075°08'0 0.0
2017-Jun-18 17:00N 39°55' W 075°08'0 0.0
2017-Jun-18 16:30N 39°55' W 075°08'1 2.0
2017-Jun-18 16:01N 39°54' W 075°08'1 2.7
2017-Jun-18 15:31N 39°53' W 075°09'4 8.0
2017-Jun-18 15:00N 39°52' W 075°14'8 8.0
2017-Jun-18 14:00N 39°49' W 075°24'4 7.8
2017-Jun-18 13:30N 39°47' W 075°28'4 8.3
2017-Jun-18 13:00N 39°43' W 075°30'4 8.0
2017-Jun-18 12:30N 39°39' W 075°33'4 7.3
2017-Jun-18 12:00N 39°36' W 075°34'4 8.2
2017-Jun-18 11:30N 39°32' W 075°33'4 8.6
2017-Jun-18 11:00N 39°28' W 075°34'4 8.9
2017-Jun-18 10:30N 39°24' W 075°30'5 9.4
2017-Jun-18 10:00N 39°21' W 075°26'5 9.5
2017-Jun-18 09:30N 39°17' W 075°22'5 9.5
2017-Jun-18 09:00N 39°14' W 075°18'5 9.3
2017-Jun-18 08:30N 39°09' W 075°15'4 8.8
2017-Jun-18 08:00N 39°06' W 075°12'5 9.2
2017-Jun-18 07:30N 39°02' W 075°09'  

Dump ship's entire track history